sensor_id;sensor_type;location;lat;lon;timestamp;temperature;humidity
13186;DHT22;6658;53.080;7.428;2023-10-13T00:00:36;14.80;99.90
13186;DHT22;6658;53.080;7.428;2023-10-13T00:03:04;14.80;99.90
13186;DHT22;6658;53.080;7.428;2023-10-13T00:05:31;14.80;99.90
13186;DHT22;6658;53.080;7.428;2023-10-13T00:07:59;14.90;99.90
13186;DHT22;6658;53.080;7.428;2023-10-13T00:10:27;14.90;99.90
13186;DHT22;6658;53.080;7.428;2023-10-13T00:12:53;15.00;99.90
13186;DHT22;6658;53.080;7.428;2023-10-13T00:15:19;15.00;99.90
13186;DHT22;6658;53.080;7.428;2023-10-13T00:17:53;15.10;99.90
13186;DHT22;6658;53.080;7.428;2023-10-13T00:20:21;15.10;99.90
13186;DHT22;6658;53.080;7.428;2023-10-13T00:23:03;15.20;99.90
13186;DHT22;6658;53.080;7.428;2023-10-13T00:25:29;15.20;99.90
13186;DHT22;6658;53.080;7.428;2023-10-13T00:27:57;15.20;99.90
13186;DHT22;6658;53.080;7.428;2023-10-13T00:30:23;15.30;99.90
13186;DHT22;6658;53.080;7.428;2023-10-13T00:32:59;15.30;99.90
13186;DHT22;6658;53.080;7.428;2023-10-13T00:35:26;15.40;99.90
13186;DHT22;6658;53.080;7.428;2023-10-13T00:38:12;15.50;99.90
13186;DHT22;6658;53.080;7.428;2023-10-13T00:40:39;15.50;99.90
13186;DHT22;6658;53.080;7.428;2023-10-13T00:43:05;15.60;99.90
13186;DHT22;6658;53.080;7.428;2023-10-13T00:46:01;15.70;99.90
13186;DHT22;6658;53.080;7.428;2023-10-13T00:48:32;15.70;99.90
13186;DHT22;6658;53.080;7.428;2023-10-13T00:51:07;15.70;99.90
13186;DHT22;6658;53.080;7.428;2023-10-13T00:53:37;15.80;99.90
13186;DHT22;6658;53.080;7.428;2023-10-13T00:56:06;15.80;99.90
13186;DHT22;6658;53.080;7.428;2023-10-13T00:58:47;15.90;99.90
13186;DHT22;6658;53.080;7.428;2023-10-13T01:01:12;15.90;99.90
13186;DHT22;6658;53.080;7.428;2023-10-13T01:03:53;15.90;99.90
13186;DHT22;6658;53.080;7.428;2023-10-13T01:06:25;16.00;99.90
13186;DHT22;6658;53.080;7.428;2023-10-13T01:11:41;16.00;99.90
13186;DHT22;6658;53.080;7.428;2023-10-13T01:14:11;16.00;99.90
13186;DHT22;6658;53.080;7.428;2023-10-13T01:16:38;16.00;99.90
13186;DHT22;6658;53.080;7.428;2023-10-13T01:19:19;16.00;99.90
13186;DHT22;6658;53.080;7.428;2023-10-13T01:21:50;16.00;99.90
13186;DHT22;6658;53.080;7.428;2023-10-13T01:24:22;16.10;99.90
13186;DHT22;6658;53.080;7.428;2023-10-13T01:26:50;16.10;99.90
13186;DHT22;6658;53.080;7.428;2023-10-13T01:29:18;16.10;99.90
13186;DHT22;6658;53.080;7.428;2023-10-13T01:31:45;16.10;99.90
13186;DHT22;6658;53.080;7.428;2023-10-13T01:36:38;16.20;99.90
13186;DHT22;6658;53.080;7.428;2023-10-13T01:39:09;16.20;99.90
13186;DHT22;6658;53.080;7.428;2023-10-13T01:41:37;16.20;99.90
13186;DHT22;6658;53.080;7.428;2023-10-13T01:44:05;16.30;99.90
13186;DHT22;6658;53.080;7.428;2023-10-13T01:46:30;16.30;99.90
13186;DHT22;6658;53.080;7.428;2023-10-13T01:48:56;16.30;99.90
13186;DHT22;6658;53.080;7.428;2023-10-13T01:51:22;16.30;99.90
13186;DHT22;6658;53.080;7.428;2023-10-13T01:53:48;16.30;99.90
13186;DHT22;6658;53.080;7.428;2023-10-13T01:56:21;16.30;99.90
13186;DHT22;6658;53.080;7.428;2023-10-13T01:58:48;16.30;99.90
13186;DHT22;6658;53.080;7.428;2023-10-13T02:01:14;16.30;99.90
13186;DHT22;6658;53.080;7.428;2023-10-13T02:03:52;16.40;99.90
13186;DHT22;6658;53.080;7.428;2023-10-13T02:06:27;16.40;99.90
13186;DHT22;6658;53.080;7.428;2023-10-13T02:09:08;16.40;99.90
13186;DHT22;6658;53.080;7.428;2023-10-13T02:11:43;16.40;99.90
13186;DHT22;6658;53.080;7.428;2023-10-13T02:14:13;16.40;99.90
13186;DHT22;6658;53.080;7.428;2023-10-13T02:16:42;16.40;99.90
13186;DHT22;6658;53.080;7.428;2023-10-13T02:19:07;16.40;99.90
13186;DHT22;6658;53.080;7.428;2023-10-13T02:21:34;16.40;99.90
13186;DHT22;6658;53.080;7.428;2023-10-13T02:24:08;16.40;99.90
13186;DHT22;6658;53.080;7.428;2023-10-13T02:26:42;16.40;99.90
13186;DHT22;6658;53.080;7.428;2023-10-13T02:29:07;16.50;99.90
13186;DHT22;6658;53.080;7.428;2023-10-13T02:31:37;16.50;99.90
13186;DHT22;6658;53.080;7.428;2023-10-13T02:34:04;16.50;99.90
13186;DHT22;6658;53.080;7.428;2023-10-13T02:36:40;16.50;99.90
13186;DHT22;6658;53.080;7.428;2023-10-13T02:39:24;16.50;99.90
13186;DHT22;6658;53.080;7.428;2023-10-13T02:41:54;16.60;99.90
13186;DHT22;6658;53.080;7.428;2023-10-13T02:44:21;16.60;99.90
13186;DHT22;6658;53.080;7.428;2023-10-13T02:46:57;16.60;99.90
13186;DHT22;6658;53.080;7.428;2023-10-13T02:49:27;16.60;99.90
13186;DHT22;6658;53.080;7.428;2023-10-13T02:51:53;16.60;99.90
13186;DHT22;6658;53.080;7.428;2023-10-13T02:54:21;16.60;99.90
13186;DHT22;6658;53.080;7.428;2023-10-13T02:56:47;16.60;99.90
13186;DHT22;6658;53.080;7.428;2023-10-13T02:59:23;16.60;99.90
13186;DHT22;6658;53.080;7.428;2023-10-13T03:02:01;16.60;99.90
13186;DHT22;6658;53.080;7.428;2023-10-13T03:04:32;16.60;99.90
13186;DHT22;6658;53.080;7.428;2023-10-13T03:06:58;16.60;99.90
13186;DHT22;6658;53.080;7.428;2023-10-13T03:09:25;16.70;99.90
13186;DHT22;6658;53.080;7.428;2023-10-13T03:11:51;16.60;99.90
13186;DHT22;6658;53.080;7.428;2023-10-13T03:14:22;16.60;99.90
13186;DHT22;6658;53.080;7.428;2023-10-13T03:17:03;16.70;99.90
13186;DHT22;6658;53.080;7.428;2023-10-13T03:19:35;16.70;99.90
13186;DHT22;6658;53.080;7.428;2023-10-13T03:22:07;16.70;99.90
13186;DHT22;6658;53.080;7.428;2023-10-13T03:24:36;16.70;99.90
13186;DHT22;6658;53.080;7.428;2023-10-13T03:27:02;16.60;99.90
13186;DHT22;6658;53.080;7.428;2023-10-13T03:29:36;16.70;99.90
13186;DHT22;6658;53.080;7.428;2023-10-13T03:32:03;16.70;99.90
13186;DHT22;6658;53.080;7.428;2023-10-13T03:34:33;16.70;99.90
13186;DHT22;6658;53.080;7.428;2023-10-13T03:37:00;16.70;99.90
13186;DHT22;6658;53.080;7.428;2023-10-13T03:39:36;16.60;99.90
13186;DHT22;6658;53.080;7.428;2023-10-13T03:42:01;16.70;99.90
13186;DHT22;6658;53.080;7.428;2023-10-13T03:44:31;16.70;99.90
13186;DHT22;6658;53.080;7.428;2023-10-13T03:46:57;16.70;99.90
13186;DHT22;6658;53.080;7.428;2023-10-13T03:49:33;16.70;99.90
13186;DHT22;6658;53.080;7.428;2023-10-13T03:52:03;16.70;99.90
13186;DHT22;6658;53.080;7.428;2023-10-13T03:54:31;16.70;99.90
13186;DHT22;6658;53.080;7.428;2023-10-13T03:57:00;16.70;99.90
13186;DHT22;6658;53.080;7.428;2023-10-13T03:59:29;16.70;99.90
13186;DHT22;6658;53.080;7.428;2023-10-13T04:02:01;16.70;99.90
13186;DHT22;6658;53.080;7.428;2023-10-13T04:04:29;16.70;99.90
13186;DHT22;6658;53.080;7.428;2023-10-13T04:07:09;16.70;99.90
13186;DHT22;6658;53.080;7.428;2023-10-13T04:09:36;16.70;99.90
13186;DHT22;6658;53.080;7.428;2023-10-13T04:12:07;16.70;99.90
13186;DHT22;6658;53.080;7.428;2023-10-13T04:14:43;16.70;99.90
13186;DHT22;6658;53.080;7.428;2023-10-13T04:17:24;16.70;99.90
13186;DHT22;6658;53.080;7.428;2023-10-13T04:19:56;16.70;99.90
13186;DHT22;6658;53.080;7.428;2023-10-13T04:22:41;16.70;99.90
13186;DHT22;6658;53.080;7.428;2023-10-13T04:25:22;16.70;99.90
13186;DHT22;6658;53.080;7.428;2023-10-13T04:28:09;16.70;99.90
13186;DHT22;6658;53.080;7.428;2023-10-13T04:33:29;16.70;99.90
13186;DHT22;6658;53.080;7.428;2023-10-13T04:36:12;16.70;99.90
13186;DHT22;6658;53.080;7.428;2023-10-13T04:38:55;16.70;99.90
13186;DHT22;6658;53.080;7.428;2023-10-13T04:41:28;16.70;99.90
13186;DHT22;6658;53.080;7.428;2023-10-13T04:44:03;16.70;99.90
13186;DHT22;6658;53.080;7.428;2023-10-13T04:46:47;16.70;99.90
13186;DHT22;6658;53.080;7.428;2023-10-13T04:49:13;16.70;99.90
13186;DHT22;6658;53.080;7.428;2023-10-13T04:52:02;16.70;99.90
13186;DHT22;6658;53.080;7.428;2023-10-13T04:54:35;16.70;99.90
13186;DHT22;6658;53.080;7.428;2023-10-13T04:57:14;16.70;99.90
13186;DHT22;6658;53.080;7.428;2023-10-13T04:59:58;16.70;99.90
13186;DHT22;6658;53.080;7.428;2023-10-13T05:02:44;16.60;99.90
13186;DHT22;6658;53.080;7.428;2023-10-13T05:05:26;16.70;99.90
13186;DHT22;6658;53.080;7.428;2023-10-13T05:08:10;16.70;99.90
13186;DHT22;6658;53.080;7.428;2023-10-13T05:10:54;16.70;99.90
13186;DHT22;6658;53.080;7.428;2023-10-13T05:13:38;16.70;99.90
13186;DHT22;6658;53.080;7.428;2023-10-13T05:16:22;16.70;99.90
13186;DHT22;6658;53.080;7.428;2023-10-13T05:19:06;16.60;99.90
13186;DHT22;6658;53.080;7.428;2023-10-13T05:21:50;16.70;99.90
13186;DHT22;6658;53.080;7.428;2023-10-13T05:24:34;16.70;99.90
13186;DHT22;6658;53.080;7.428;2023-10-13T05:27:18;16.70;99.90
13186;DHT22;6658;53.080;7.428;2023-10-13T05:30:03;16.70;99.90
13186;DHT22;6658;53.080;7.428;2023-10-13T05:32:47;16.70;99.90
13186;DHT22;6658;53.080;7.428;2023-10-13T05:35:31;16.70;99.90
13186;DHT22;6658;53.080;7.428;2023-10-13T05:38:15;16.70;99.90
13186;DHT22;6658;53.080;7.428;2023-10-13T05:41:01;16.70;99.90
13186;DHT22;6658;53.080;7.428;2023-10-13T05:43:46;16.70;99.90
13186;DHT22;6658;53.080;7.428;2023-10-13T05:46:31;16.70;99.90
13186;DHT22;6658;53.080;7.428;2023-10-13T05:49:03;16.70;99.90
13186;DHT22;6658;53.080;7.428;2023-10-13T05:51:42;16.70;99.90
13186;DHT22;6658;53.080;7.428;2023-10-13T05:54:23;16.60;99.90
13186;DHT22;6658;53.080;7.428;2023-10-13T05:57:07;16.70;99.90
13186;DHT22;6658;53.080;7.428;2023-10-13T05:59:51;16.70;99.90
13186;DHT22;6658;53.080;7.428;2023-10-13T06:02:35;16.70;99.90
13186;DHT22;6658;53.080;7.428;2023-10-13T06:05:20;16.60;99.90
13186;DHT22;6658;53.080;7.428;2023-10-13T06:08:04;16.60;99.90
13186;DHT22;6658;53.080;7.428;2023-10-13T06:10:48;16.60;99.90
13186;DHT22;6658;53.080;7.428;2023-10-13T06:13:32;16.50;99.90
13186;DHT22;6658;53.080;7.428;2023-10-13T06:16:17;16.50;99.90
13186;DHT22;6658;53.080;7.428;2023-10-13T06:19:02;16.50;99.90
13186;DHT22;6658;53.080;7.428;2023-10-13T06:21:46;16.50;99.90
13186;DHT22;6658;53.080;7.428;2023-10-13T06:24:31;16.50;99.90
13186;DHT22;6658;53.080;7.428;2023-10-13T06:27:15;16.50;99.90
13186;DHT22;6658;53.080;7.428;2023-10-13T06:30:00;16.50;99.90
13186;DHT22;6658;53.080;7.428;2023-10-13T06:32:30;16.50;99.90
13186;DHT22;6658;53.080;7.428;2023-10-13T06:34:57;16.50;99.90
13186;DHT22;6658;53.080;7.428;2023-10-13T06:37:27;16.50;99.90
13186;DHT22;6658;53.080;7.428;2023-10-13T06:40:03;16.50;99.90
13186;DHT22;6658;53.080;7.428;2023-10-13T06:42:48;16.50;99.90
13186;DHT22;6658;53.080;7.428;2023-10-13T06:45:14;16.50;99.90
13186;DHT22;6658;53.080;7.428;2023-10-13T06:47:42;16.60;99.90
13186;DHT22;6658;53.080;7.428;2023-10-13T06:50:10;16.50;99.90
13186;DHT22;6658;53.080;7.428;2023-10-13T06:52:43;16.60;99.90
13186;DHT22;6658;53.080;7.428;2023-10-13T06:55:09;16.60;99.90
13186;DHT22;6658;53.080;7.428;2023-10-13T06:57:37;16.60;99.90
13186;DHT22;6658;53.080;7.428;2023-10-13T07:00:09;16.60;99.90
13186;DHT22;6658;53.080;7.428;2023-10-13T07:02:48;16.60;99.90
13186;DHT22;6658;53.080;7.428;2023-10-13T07:05:17;16.60;99.90
13186;DHT22;6658;53.080;7.428;2023-10-13T07:07:42;16.60;99.90
13186;DHT22;6658;53.080;7.428;2023-10-13T07:10:10;16.70;99.90
13186;DHT22;6658;53.080;7.428;2023-10-13T07:12:37;16.60;99.90
13186;DHT22;6658;53.080;7.428;2023-10-13T07:15:07;16.70;99.90
13186;DHT22;6658;53.080;7.428;2023-10-13T07:17:42;16.70;99.90
13186;DHT22;6658;53.080;7.428;2023-10-13T07:20:10;16.70;99.90
13186;DHT22;6658;53.080;7.428;2023-10-13T07:23:00;16.70;99.90
13186;DHT22;6658;53.080;7.428;2023-10-13T07:25:29;16.70;99.90
13186;DHT22;6658;53.080;7.428;2023-10-13T07:27:59;16.80;99.90
13186;DHT22;6658;53.080;7.428;2023-10-13T07:30:27;16.80;99.90
13186;DHT22;6658;53.080;7.428;2023-10-13T07:32:54;16.80;99.90
13186;DHT22;6658;53.080;7.428;2023-10-13T07:35:23;16.90;99.90
13186;DHT22;6658;53.080;7.428;2023-10-13T07:37:50;16.90;99.90
13186;DHT22;6658;53.080;7.428;2023-10-13T07:40:21;17.00;99.90
13186;DHT22;6658;53.080;7.428;2023-10-13T07:42:56;17.00;99.90
13186;DHT22;6658;53.080;7.428;2023-10-13T07:45:39;17.00;99.90
13186;DHT22;6658;53.080;7.428;2023-10-13T07:48:11;17.00;99.90
13186;DHT22;6658;53.080;7.428;2023-10-13T07:51:02;17.00;99.90
13186;DHT22;6658;53.080;7.428;2023-10-13T07:53:29;17.00;99.90
13186;DHT22;6658;53.080;7.428;2023-10-13T07:56:00;17.00;99.90
13186;DHT22;6658;53.080;7.428;2023-10-13T07:58:31;17.10;99.90
13186;DHT22;6658;53.080;7.428;2023-10-13T08:00:58;17.00;99.90
13186;DHT22;6658;53.080;7.428;2023-10-13T08:03:24;17.10;99.90
13186;DHT22;6658;53.080;7.428;2023-10-13T08:06:08;17.10;99.90
13186;DHT22;6658;53.080;7.428;2023-10-13T08:08:37;17.10;99.90
13186;DHT22;6658;53.080;7.428;2023-10-13T08:11:10;17.10;99.90
13186;DHT22;6658;53.080;7.428;2023-10-13T08:13:59;17.10;99.90
13186;DHT22;6658;53.080;7.428;2023-10-13T08:16:31;17.10;99.90
13186;DHT22;6658;53.080;7.428;2023-10-13T08:19:17;17.00;99.90
13186;DHT22;6658;53.080;7.428;2023-10-13T08:21:44;17.00;99.90
13186;DHT22;6658;53.080;7.428;2023-10-13T08:24:26;17.10;99.90
13186;DHT22;6658;53.080;7.428;2023-10-13T08:27:20;17.10;99.90
13186;DHT22;6658;53.080;7.428;2023-10-13T08:30:00;17.10;99.90
13186;DHT22;6658;53.080;7.428;2023-10-13T08:32:28;17.10;99.90
13186;DHT22;6658;53.080;7.428;2023-10-13T08:35:00;17.10;99.90
13186;DHT22;6658;53.080;7.428;2023-10-13T08:37:27;17.10;99.90
13186;DHT22;6658;53.080;7.428;2023-10-13T08:39:58;17.10;99.90
13186;DHT22;6658;53.080;7.428;2023-10-13T08:42:38;17.10;99.90
13186;DHT22;6658;53.080;7.428;2023-10-13T08:45:14;17.20;99.90
13186;DHT22;6658;53.080;7.428;2023-10-13T08:47:49;17.20;99.90
13186;DHT22;6658;53.080;7.428;2023-10-13T08:50:39;17.30;99.90
13186;DHT22;6658;53.080;7.428;2023-10-13T08:58:42;17.40;99.90
13186;DHT22;6658;53.080;7.428;2023-10-13T09:03:59;17.50;99.90
13186;DHT22;6658;53.080;7.428;2023-10-13T09:06:55;17.60;99.90
13186;DHT22;6658;53.080;7.428;2023-10-13T09:09:49;17.70;99.90
13186;DHT22;6658;53.080;7.428;2023-10-13T09:12:21;17.80;99.90
13186;DHT22;6658;53.080;7.428;2023-10-13T09:15:10;17.90;99.90
13186;DHT22;6658;53.080;7.428;2023-10-13T09:17:45;17.90;99.90
13186;DHT22;6658;53.080;7.428;2023-10-13T09:20:16;17.90;99.90
13186;DHT22;6658;53.080;7.428;2023-10-13T09:22:57;18.00;99.90
13186;DHT22;6658;53.080;7.428;2023-10-13T09:27:59;18.10;99.90
13186;DHT22;6658;53.080;7.428;2023-10-13T09:30:26;18.30;99.90
13186;DHT22;6658;53.080;7.428;2023-10-13T09:33:04;18.30;99.90
13186;DHT22;6658;53.080;7.428;2023-10-13T09:35:31;18.50;99.90
13186;DHT22;6658;53.080;7.428;2023-10-13T09:38:00;18.60;99.90
13186;DHT22;6658;53.080;7.428;2023-10-13T09:40:30;18.70;99.90
13186;DHT22;6658;53.080;7.428;2023-10-13T09:43:03;18.70;99.90
13186;DHT22;6658;53.080;7.428;2023-10-13T09:45:34;18.70;99.90
13186;DHT22;6658;53.080;7.428;2023-10-13T09:48:10;18.70;99.90
13186;DHT22;6658;53.080;7.428;2023-10-13T09:50:43;18.60;99.90
13186;DHT22;6658;53.080;7.428;2023-10-13T09:53:11;18.60;99.90
13186;DHT22;6658;53.080;7.428;2023-10-13T09:55:49;18.60;99.90
13186;DHT22;6658;53.080;7.428;2023-10-13T09:58:17;18.50;99.90
13186;DHT22;6658;53.080;7.428;2023-10-13T10:00:57;18.50;99.90
13186;DHT22;6658;53.080;7.428;2023-10-13T10:03:32;18.50;99.90
13186;DHT22;6658;53.080;7.428;2023-10-13T10:06:02;18.40;99.90
13186;DHT22;6658;53.080;7.428;2023-10-13T10:08:34;18.40;99.90
13186;DHT22;6658;53.080;7.428;2023-10-13T10:17:02;18.70;99.90
13186;DHT22;6658;53.080;7.428;2023-10-13T10:19:52;18.80;99.90
13186;DHT22;6658;53.080;7.428;2023-10-13T10:22:29;18.90;99.90
13186;DHT22;6658;53.080;7.428;2023-10-13T10:25:05;19.00;99.90
13186;DHT22;6658;53.080;7.428;2023-10-13T10:28:02;19.10;99.90
13186;DHT22;6658;53.080;7.428;2023-10-13T10:30:32;19.10;99.90
13186;DHT22;6658;53.080;7.428;2023-10-13T10:33:04;19.30;99.90
13186;DHT22;6658;53.080;7.428;2023-10-13T10:35:45;19.40;99.90
13186;DHT22;6658;53.080;7.428;2023-10-13T10:38:12;19.50;99.90
13186;DHT22;6658;53.080;7.428;2023-10-13T10:41:05;19.50;99.90
13186;DHT22;6658;53.080;7.428;2023-10-13T10:46:25;19.60;99.90
13186;DHT22;6658;53.080;7.428;2023-10-13T10:48:51;19.70;99.90
13186;DHT22;6658;53.080;7.428;2023-10-13T10:51:22;19.90;99.90
13186;DHT22;6658;53.080;7.428;2023-10-13T10:53:52;20.00;99.90
13186;DHT22;6658;53.080;7.428;2023-10-13T10:56:22;20.20;99.90
13186;DHT22;6658;53.080;7.428;2023-10-13T10:58:57;20.40;99.90
13186;DHT22;6658;53.080;7.428;2023-10-13T11:01:23;20.60;99.90
13186;DHT22;6658;53.080;7.428;2023-10-13T11:03:59;20.80;99.90
13186;DHT22;6658;53.080;7.428;2023-10-13T11:06:28;21.10;99.90
13186;DHT22;6658;53.080;7.428;2023-10-13T11:09:06;21.20;99.90
13186;DHT22;6658;53.080;7.428;2023-10-13T11:12:10;21.10;99.90
13186;DHT22;6658;53.080;7.428;2023-10-13T11:14:45;21.10;99.90
13186;DHT22;6658;53.080;7.428;2023-10-13T11:17:20;21.00;99.90
13186;DHT22;6658;53.080;7.428;2023-10-13T11:20:10;20.90;99.90
13186;DHT22;6658;53.080;7.428;2023-10-13T11:22:49;20.90;99.90
13186;DHT22;6658;53.080;7.428;2023-10-13T11:25:29;20.90;99.90
13186;DHT22;6658;53.080;7.428;2023-10-13T11:28:17;20.80;99.90
13186;DHT22;6658;53.080;7.428;2023-10-13T11:30:46;20.80;99.90
13186;DHT22;6658;53.080;7.428;2023-10-13T11:33:16;20.90;99.90
13186;DHT22;6658;53.080;7.428;2023-10-13T11:35:58;20.80;99.90
13186;DHT22;6658;53.080;7.428;2023-10-13T11:38:31;20.80;99.90
13186;DHT22;6658;53.080;7.428;2023-10-13T11:41:06;20.70;99.90
13186;DHT22;6658;53.080;7.428;2023-10-13T11:46:14;20.60;99.90
13186;DHT22;6658;53.080;7.428;2023-10-13T11:48:44;20.50;99.90
13186;DHT22;6658;53.080;7.428;2023-10-13T11:51:14;20.60;99.90
13186;DHT22;6658;53.080;7.428;2023-10-13T11:53:45;20.60;99.90
13186;DHT22;6658;53.080;7.428;2023-10-13T11:56:18;20.70;99.90
13186;DHT22;6658;53.080;7.428;2023-10-13T11:58:46;20.60;99.90
13186;DHT22;6658;53.080;7.428;2023-10-13T12:01:13;20.60;99.90
13186;DHT22;6658;53.080;7.428;2023-10-13T12:03:39;20.60;99.90
13186;DHT22;6658;53.080;7.428;2023-10-13T12:06:24;20.60;99.90
13186;DHT22;6658;53.080;7.428;2023-10-13T12:11:48;20.70;99.90
13186;DHT22;6658;53.080;7.428;2023-10-13T12:14:16;20.80;99.90
13186;DHT22;6658;53.080;7.428;2023-10-13T12:16:43;20.90;99.90
13186;DHT22;6658;53.080;7.428;2023-10-13T12:19:17;21.00;99.90
13186;DHT22;6658;53.080;7.428;2023-10-13T12:21:43;21.00;99.90
13186;DHT22;6658;53.080;7.428;2023-10-13T12:24:10;20.90;99.90
13186;DHT22;6658;53.080;7.428;2023-10-13T12:26:48;21.00;99.90
13186;DHT22;6658;53.080;7.428;2023-10-13T12:29:14;20.90;99.90
13186;DHT22;6658;53.080;7.428;2023-10-13T12:31:48;21.00;99.90
13186;DHT22;6658;53.080;7.428;2023-10-13T12:34:27;20.90;99.90
13186;DHT22;6658;53.080;7.428;2023-10-13T12:37:12;20.90;99.90
13186;DHT22;6658;53.080;7.428;2023-10-13T12:39:58;20.90;99.90
13186;DHT22;6658;53.080;7.428;2023-10-13T12:42:42;20.80;99.90
13186;DHT22;6658;53.080;7.428;2023-10-13T12:45:26;20.70;99.90
13186;DHT22;6658;53.080;7.428;2023-10-13T12:48:10;20.60;99.90
13186;DHT22;6658;53.080;7.428;2023-10-13T12:50:54;20.60;99.90
13186;DHT22;6658;53.080;7.428;2023-10-13T12:53:33;20.50;99.90
13186;DHT22;6658;53.080;7.428;2023-10-13T12:55:59;20.30;99.90
13186;DHT22;6658;53.080;7.428;2023-10-13T12:58:24;20.20;99.90
13186;DHT22;6658;53.080;7.428;2023-10-13T13:00:52;20.00;99.90
13186;DHT22;6658;53.080;7.428;2023-10-13T13:03:30;20.00;99.90
13186;DHT22;6658;53.080;7.428;2023-10-13T13:05:56;20.00;99.90
13186;DHT22;6658;53.080;7.428;2023-10-13T13:08:21;20.00;99.90
13186;DHT22;6658;53.080;7.428;2023-10-13T13:10:48;20.00;99.90
13186;DHT22;6658;53.080;7.428;2023-10-13T13:13:14;20.00;99.90
13186;DHT22;6658;53.080;7.428;2023-10-13T13:15:42;20.10;99.90
13186;DHT22;6658;53.080;7.428;2023-10-13T13:18:08;20.10;99.90
13186;DHT22;6658;53.080;7.428;2023-10-13T13:20:40;20.20;99.90
13186;DHT22;6658;53.080;7.428;2023-10-13T13:23:09;20.20;99.90
13186;DHT22;6658;53.080;7.428;2023-10-13T13:25:38;20.30;99.90
13186;DHT22;6658;53.080;7.428;2023-10-13T13:28:08;20.40;99.90
13186;DHT22;6658;53.080;7.428;2023-10-13T13:30:35;20.40;99.90
13186;DHT22;6658;53.080;7.428;2023-10-13T13:33:03;20.40;99.90
13186;DHT22;6658;53.080;7.428;2023-10-13T13:35:37;20.50;99.90
13186;DHT22;6658;53.080;7.428;2023-10-13T13:38:03;20.60;99.90
13186;DHT22;6658;53.080;7.428;2023-10-13T13:40:37;20.70;99.90
13186;DHT22;6658;53.080;7.428;2023-10-13T13:43:03;20.70;99.90
13186;DHT22;6658;53.080;7.428;2023-10-13T13:45:29;20.80;99.90
13186;DHT22;6658;53.080;7.428;2023-10-13T13:47:55;20.90;99.90
13186;DHT22;6658;53.080;7.428;2023-10-13T13:50:22;21.00;99.90
13186;DHT22;6658;53.080;7.428;2023-10-13T13:52:51;21.00;99.90
13186;DHT22;6658;53.080;7.428;2023-10-13T13:55:19;21.00;99.90
13186;DHT22;6658;53.080;7.428;2023-10-13T13:57:45;20.90;99.90
13186;DHT22;6658;53.080;7.428;2023-10-13T14:00:12;20.90;99.90
13186;DHT22;6658;53.080;7.428;2023-10-13T14:03:07;20.90;99.90
13186;DHT22;6658;53.080;7.428;2023-10-13T14:05:59;20.90;99.90
13186;DHT22;6658;53.080;7.428;2023-10-13T14:08:26;20.80;99.90
13186;DHT22;6658;53.080;7.428;2023-10-13T14:10:55;20.80;99.90
13186;DHT22;6658;53.080;7.428;2023-10-13T14:13:46;20.70;99.90
13186;DHT22;6658;53.080;7.428;2023-10-13T14:16:18;20.50;99.90
13186;DHT22;6658;53.080;7.428;2023-10-13T14:18:51;20.20;99.90
13186;DHT22;6658;53.080;7.428;2023-10-13T14:21:17;20.10;99.90
13186;DHT22;6658;53.080;7.428;2023-10-13T14:23:48;19.90;99.90
13186;DHT22;6658;53.080;7.428;2023-10-13T14:26:17;19.80;99.90
13186;DHT22;6658;53.080;7.428;2023-10-13T14:28:49;19.70;99.90
13186;DHT22;6658;53.080;7.428;2023-10-13T14:31:30;19.60;99.90
13186;DHT22;6658;53.080;7.428;2023-10-13T14:33:56;19.60;99.90
13186;DHT22;6658;53.080;7.428;2023-10-13T14:36:25;19.60;99.90
13186;DHT22;6658;53.080;7.428;2023-10-13T14:38:56;19.60;99.90
13186;DHT22;6658;53.080;7.428;2023-10-13T14:41:22;19.70;99.90
13186;DHT22;6658;53.080;7.428;2023-10-13T14:43:48;19.70;99.90
13186;DHT22;6658;53.080;7.428;2023-10-13T14:46:17;19.80;99.90
13186;DHT22;6658;53.080;7.428;2023-10-13T14:48:44;19.80;99.90
13186;DHT22;6658;53.080;7.428;2023-10-13T14:51:13;19.80;99.90
13186;DHT22;6658;53.080;7.428;2023-10-13T14:53:42;19.80;99.90
13186;DHT22;6658;53.080;7.428;2023-10-13T14:56:15;19.80;99.90
13186;DHT22;6658;53.080;7.428;2023-10-13T14:58:42;19.80;99.90
13186;DHT22;6658;53.080;7.428;2023-10-13T15:01:15;19.80;99.90
13186;DHT22;6658;53.080;7.428;2023-10-13T15:03:45;19.80;99.90
13186;DHT22;6658;53.080;7.428;2023-10-13T15:06:17;19.80;99.90
13186;DHT22;6658;53.080;7.428;2023-10-13T15:08:47;19.80;99.90
13186;DHT22;6658;53.080;7.428;2023-10-13T15:11:14;19.80;99.90
13186;DHT22;6658;53.080;7.428;2023-10-13T15:13:43;19.80;99.90
13186;DHT22;6658;53.080;7.428;2023-10-13T15:16:15;19.80;99.90
13186;DHT22;6658;53.080;7.428;2023-10-13T15:18:48;19.70;99.90
13186;DHT22;6658;53.080;7.428;2023-10-13T15:21:27;19.70;99.90
13186;DHT22;6658;53.080;7.428;2023-10-13T15:24:16;19.70;99.90
13186;DHT22;6658;53.080;7.428;2023-10-13T15:26:46;19.50;99.90
13186;DHT22;6658;53.080;7.428;2023-10-13T15:29:18;19.30;99.90
13186;DHT22;6658;53.080;7.428;2023-10-13T15:31:51;19.10;99.90
13186;DHT22;6658;53.080;7.428;2023-10-13T15:34:31;18.90;99.90
13186;DHT22;6658;53.080;7.428;2023-10-13T15:36:58;18.70;99.90
13186;DHT22;6658;53.080;7.428;2023-10-13T15:39:24;18.50;99.90
13186;DHT22;6658;53.080;7.428;2023-10-13T15:41:50;18.40;99.90
13186;DHT22;6658;53.080;7.428;2023-10-13T15:44:20;18.30;99.90
13186;DHT22;6658;53.080;7.428;2023-10-13T15:46:52;18.20;99.90
13186;DHT22;6658;53.080;7.428;2023-10-13T15:49:18;18.10;99.90
13186;DHT22;6658;53.080;7.428;2023-10-13T15:51:44;18.00;99.90
13186;DHT22;6658;53.080;7.428;2023-10-13T15:54:11;18.00;99.90
13186;DHT22;6658;53.080;7.428;2023-10-13T15:56:47;18.00;99.90
13186;DHT22;6658;53.080;7.428;2023-10-13T15:59:14;17.90;99.90
13186;DHT22;6658;53.080;7.428;2023-10-13T16:01:40;17.90;99.90
13186;DHT22;6658;53.080;7.428;2023-10-13T16:04:07;17.90;99.90
13186;DHT22;6658;53.080;7.428;2023-10-13T16:06:45;17.90;99.90
13186;DHT22;6658;53.080;7.428;2023-10-13T16:09:19;17.90;99.90
13186;DHT22;6658;53.080;7.428;2023-10-13T16:11:51;17.90;99.90
13186;DHT22;6658;53.080;7.428;2023-10-13T16:14:18;17.90;99.90
13186;DHT22;6658;53.080;7.428;2023-10-13T16:16:45;17.90;99.90
13186;DHT22;6658;53.080;7.428;2023-10-13T16:19:15;17.90;99.90
13186;DHT22;6658;53.080;7.428;2023-10-13T16:21:47;17.90;99.90
13186;DHT22;6658;53.080;7.428;2023-10-13T16:24:13;17.90;99.90
13186;DHT22;6658;53.080;7.428;2023-10-13T16:26:46;17.90;99.90
13186;DHT22;6658;53.080;7.428;2023-10-13T16:29:24;17.80;99.90
13186;DHT22;6658;53.080;7.428;2023-10-13T16:31:49;17.90;99.90
13186;DHT22;6658;53.080;7.428;2023-10-13T16:34:16;17.90;99.90
13186;DHT22;6658;53.080;7.428;2023-10-13T16:36:42;17.80;99.90
13186;DHT22;6658;53.080;7.428;2023-10-13T16:39:12;17.80;99.90
13186;DHT22;6658;53.080;7.428;2023-10-13T16:41:40;17.80;99.90
13186;DHT22;6658;53.080;7.428;2023-10-13T16:44:07;17.80;99.90
13186;DHT22;6658;53.080;7.428;2023-10-13T16:46:36;17.80;99.90
13186;DHT22;6658;53.080;7.428;2023-10-13T16:49:02;17.80;99.90
13186;DHT22;6658;53.080;7.428;2023-10-13T16:51:28;17.80;99.90
13186;DHT22;6658;53.080;7.428;2023-10-13T16:53:55;17.80;99.90
13186;DHT22;6658;53.080;7.428;2023-10-13T16:56:20;17.80;99.90